Terminal Aerodrome Forecast
Issued by NWS

Home | Current Version | Previous Version | Text Only | Print | Product List | Glossary On
Versions: 1 2 3 4 5 6 7 8 9 10 11 12 13 14 15 16 17 18 19 20 21 22 23 24 25 26 27 28 29 30 31
907
FTUS46 KOTX 080902 AAA
TAFSFF
TAF AMD
KSFF 080902Z 0809/0906 VRB03KT P6SM SCT060
     FM081200 00000KT 6SM PRFG SCT003
     FM081700 VRB03KT 3SM BR SCT004
     FM081900 06004KT P6SM SKC
     FM090400 33002KT P6SM FEW004=

USA.gov is the U.S. government's official web portal to all federal, state and local government web resources and services.